sensor_id;sensor_type;location;lat;lon;timestamp;pressure;altitude;pressure_sealevel;temperature;humidity
40285;BME280;25997;50.214;19.354;2022-11-11T00:02:25;99190.03;;;6.77;60.54
40285;BME280;25997;50.214;19.354;2022-11-11T00:05:46;99193.44;;;6.76;60.53
40285;BME280;25997;50.214;19.354;2022-11-11T00:09:09;99194.34;;;6.76;60.70
40285;BME280;25997;50.214;19.354;2022-11-11T00:12:30;99199.47;;;6.75;60.56
40285;BME280;25997;50.214;19.354;2022-11-11T00:15:52;99206.13;;;6.70;60.67
40285;BME280;25997;50.214;19.354;2022-11-11T00:19:12;99215.28;;;6.78;60.78
40285;BME280;25997;50.214;19.354;2022-11-11T00:22:51;99217.03;;;6.92;60.75
40285;BME280;25997;50.214;19.354;2022-11-11T00:26:29;99220.19;;;7.01;60.70
40285;BME280;25997;50.214;19.354;2022-11-11T00:29:50;99224.03;;;7.07;60.66
40285;BME280;25997;50.214;19.354;2022-11-11T00:33:13;99228.56;;;7.10;60.17
40285;BME280;25997;50.214;19.354;2022-11-11T00:36:34;99231.16;;;7.10;60.17
40285;BME280;25997;50.214;19.354;2022-11-11T00:39:54;99239.00;;;7.10;59.91
40285;BME280;25997;50.214;19.354;2022-11-11T00:43:14;99228.28;;;7.05;59.97
40285;BME280;25997;50.214;19.354;2022-11-11T00:46:35;99234.16;;;7.01;59.83
40285;BME280;25997;50.214;19.354;2022-11-11T00:50:30;99227.75;;;6.96;59.96
40285;BME280;25997;50.214;19.354;2022-11-11T00:54:08;99219.63;;;6.92;59.83
40285;BME280;25997;50.214;19.354;2022-11-11T00:57:30;99217.56;;;6.86;59.95
40285;BME280;25997;50.214;19.354;2022-11-11T01:00:52;99221.88;;;6.86;60.09
40285;BME280;25997;50.214;19.354;2022-11-11T01:04:13;99224.66;;;6.89;60.22
40285;BME280;25997;50.214;19.354;2022-11-11T01:07:35;99227.28;;;6.89;60.25
40285;BME280;25997;50.214;19.354;2022-11-11T01:10:56;99219.81;;;6.95;60.36
40285;BME280;25997;50.214;19.354;2022-11-11T01:14:18;99215.66;;;6.98;60.32
40285;BME280;25997;50.214;19.354;2022-11-11T01:17:39;99216.94;;;7.05;60.36
40285;BME280;25997;50.214;19.354;2022-11-11T01:21:01;99211.81;;;7.06;60.46
40285;BME280;25997;50.214;19.354;2022-11-11T01:24:23;99208.72;;;7.13;60.03
40285;BME280;25997;50.214;19.354;2022-11-11T01:27:44;99207.28;;;7.19;60.08
40285;BME280;25997;50.214;19.354;2022-11-11T01:31:07;99213.41;;;7.19;60.06
40285;BME280;25997;50.214;19.354;2022-11-11T01:34:29;99207.03;;;7.29;60.07
40285;BME280;25997;50.214;19.354;2022-11-11T01:37:50;99211.03;;;7.38;59.80
40285;BME280;25997;50.214;19.354;2022-11-11T01:41:14;99209.78;;;7.46;59.74
40285;BME280;25997;50.214;19.354;2022-11-11T01:44:53;99207.44;;;7.51;59.47
40285;BME280;25997;50.214;19.354;2022-11-11T01:48:18;99207.50;;;7.52;59.42
40285;BME280;25997;50.214;19.354;2022-11-11T01:52:03;99222.09;;;7.63;59.24
40285;BME280;25997;50.214;19.354;2022-11-11T01:55:27;99210.09;;;7.67;59.24
40285;BME280;25997;50.214;19.354;2022-11-11T01:58:51;99208.66;;;7.72;59.20
40285;BME280;25997;50.214;19.354;2022-11-11T02:02:16;99213.09;;;7.73;58.97
40285;BME280;25997;50.214;19.354;2022-11-11T02:05:40;99208.91;;;7.76;59.20
40285;BME280;25997;50.214;19.354;2022-11-11T02:09:04;99203.34;;;7.70;59.25
40285;BME280;25997;50.214;19.354;2022-11-11T02:12:26;99212.81;;;7.68;59.27
40285;BME280;25997;50.214;19.354;2022-11-11T02:16:06;99206.88;;;7.71;58.96
40285;BME280;25997;50.214;19.354;2022-11-11T02:19:32;99214.88;;;7.74;59.23
40285;BME280;25997;50.214;19.354;2022-11-11T02:22:59;99219.38;;;7.76;59.18
40285;BME280;25997;50.214;19.354;2022-11-11T02:26:23;99223.88;;;7.79;59.28
40285;BME280;25997;50.214;19.354;2022-11-11T02:29:46;99225.13;;;7.86;59.16
40285;BME280;25997;50.214;19.354;2022-11-11T02:33:08;99232.38;;;7.91;59.24
40285;BME280;25997;50.214;19.354;2022-11-11T02:36:29;99232.81;;;7.99;59.13
40285;BME280;25997;50.214;19.354;2022-11-11T02:39:55;99234.63;;;8.00;59.17
40285;BME280;25997;50.214;19.354;2022-11-11T02:43:19;99232.41;;;8.07;59.16
40285;BME280;25997;50.214;19.354;2022-11-11T02:46:40;99226.13;;;8.04;59.25
40285;BME280;25997;50.214;19.354;2022-11-11T02:50:01;99234.78;;;8.03;59.50
40285;BME280;25997;50.214;19.354;2022-11-11T02:53:22;99229.97;;;8.10;59.19
40285;BME280;25997;50.214;19.354;2022-11-11T02:56:43;99236.19;;;8.12;58.98
40285;BME280;25997;50.214;19.354;2022-11-11T03:00:23;99239.06;;;8.17;58.92
40285;BME280;25997;50.214;19.354;2022-11-11T03:03:44;99238.06;;;8.15;59.12
40285;BME280;25997;50.214;19.354;2022-11-11T03:07:05;99240.03;;;8.19;58.79
40285;BME280;25997;50.214;19.354;2022-11-11T03:10:26;99235.78;;;8.21;58.98
40285;BME280;25997;50.214;19.354;2022-11-11T03:13:47;99235.59;;;8.18;59.00
40285;BME280;25997;50.214;19.354;2022-11-11T03:17:10;99237.34;;;8.17;58.92
40285;BME280;25997;50.214;19.354;2022-11-11T03:20:48;99239.31;;;8.21;58.72
40285;BME280;25997;50.214;19.354;2022-11-11T03:24:24;99235.53;;;8.16;58.98
40285;BME280;25997;50.214;19.354;2022-11-11T03:28:08;99242.34;;;8.13;59.24
40285;BME280;25997;50.214;19.354;2022-11-11T03:31:29;99234.56;;;8.14;59.10
40285;BME280;25997;50.214;19.354;2022-11-11T03:34:52;99229.25;;;8.13;59.12
40285;BME280;25997;50.214;19.354;2022-11-11T03:38:13;99229.25;;;8.13;59.07
40285;BME280;25997;50.214;19.354;2022-11-11T03:41:43;99226.53;;;8.11;59.13
40285;BME280;25997;50.214;19.354;2022-11-11T03:45:05;99227.84;;;8.03;59.10
40285;BME280;25997;50.214;19.354;2022-11-11T03:48:28;99224.91;;;7.97;59.05
40285;BME280;25997;50.214;19.354;2022-11-11T03:51:51;99217.06;;;7.97;59.00
40285;BME280;25997;50.214;19.354;2022-11-11T03:55:12;99219.88;;;7.86;59.21
40285;BME280;25997;50.214;19.354;2022-11-11T03:58:34;99231.72;;;7.79;59.29
40285;BME280;25997;50.214;19.354;2022-11-11T04:01:54;99229.19;;;7.80;59.19
40285;BME280;25997;50.214;19.354;2022-11-11T04:05:32;99222.16;;;7.79;58.90
40285;BME280;25997;50.214;19.354;2022-11-11T04:09:12;99213.88;;;7.72;59.02
40285;BME280;25997;50.214;19.354;2022-11-11T04:12:52;99221.38;;;7.66;58.79
40285;BME280;25997;50.214;19.354;2022-11-11T04:16:30;99214.78;;;7.58;58.77
40285;BME280;25997;50.214;19.354;2022-11-11T04:19:51;99227.16;;;7.46;58.83
40285;BME280;25997;50.214;19.354;2022-11-11T04:23:30;99223.19;;;7.38;58.97
40285;BME280;25997;50.214;19.354;2022-11-11T04:26:55;99220.16;;;7.30;59.22
40285;BME280;25997;50.214;19.354;2022-11-11T04:30:15;99217.81;;;7.20;59.19
40285;BME280;25997;50.214;19.354;2022-11-11T04:33:36;99224.50;;;7.15;59.33
40285;BME280;25997;50.214;19.354;2022-11-11T04:36:57;99230.44;;;7.12;59.22
40285;BME280;25997;50.214;19.354;2022-11-11T04:40:18;99221.44;;;7.07;59.22
40285;BME280;25997;50.214;19.354;2022-11-11T04:43:59;99231.16;;;7.10;59.08
40285;BME280;25997;50.214;19.354;2022-11-11T04:47:37;99236.09;;;7.20;58.55
40285;BME280;25997;50.214;19.354;2022-11-11T04:50:58;99241.06;;;7.16;58.92
40285;BME280;25997;50.214;19.354;2022-11-11T04:54:19;99229.47;;;7.10;59.41
40285;BME280;25997;50.214;19.354;2022-11-11T04:57:41;99245.56;;;7.18;59.27
40285;BME280;25997;50.214;19.354;2022-11-11T05:01:02;99250.25;;;7.24;59.24
40285;BME280;25997;50.214;19.354;2022-11-11T05:04:23;99258.53;;;7.31;59.16
40285;BME280;25997;50.214;19.354;2022-11-11T05:07:44;99259.69;;;7.36;58.99
40285;BME280;25997;50.214;19.354;2022-11-11T05:11:24;99272.13;;;7.40;58.86
40285;BME280;25997;50.214;19.354;2022-11-11T05:14:45;99270.69;;;7.45;58.84
40285;BME280;25997;50.214;19.354;2022-11-11T05:18:25;99274.63;;;7.53;58.66
40285;BME280;25997;50.214;19.354;2022-11-11T05:22:08;99287.16;;;7.59;58.56
40285;BME280;25997;50.214;19.354;2022-11-11T05:25:30;99276.78;;;7.60;58.42
40285;BME280;25997;50.214;19.354;2022-11-11T05:28:52;99279.50;;;7.62;58.27
40285;BME280;25997;50.214;19.354;2022-11-11T05:32:15;99281.28;;;7.63;58.16
40285;BME280;25997;50.214;19.354;2022-11-11T05:35:38;99288.34;;;7.64;58.11
40285;BME280;25997;50.214;19.354;2022-11-11T05:38:59;99280.38;;;7.62;58.16
40285;BME280;25997;50.214;19.354;2022-11-11T05:42:20;99288.88;;;7.58;58.04
40285;BME280;25997;50.214;19.354;2022-11-11T05:45:41;99293.09;;;7.56;57.91
40285;BME280;25997;50.214;19.354;2022-11-11T05:49:02;99304.56;;;7.58;58.02
40285;BME280;25997;50.214;19.354;2022-11-11T05:52:37;99313.56;;;7.63;57.89
40285;BME280;25997;50.214;19.354;2022-11-11T05:55:57;99315.84;;;7.72;57.96
40285;BME280;25997;50.214;19.354;2022-11-11T05:59:18;99302.84;;;7.73;57.65
40285;BME280;25997;50.214;19.354;2022-11-11T06:02:39;99308.91;;;7.72;57.85
40285;BME280;25997;50.214;19.354;2022-11-11T06:06:00;99303.69;;;7.72;57.88
40285;BME280;25997;50.214;19.354;2022-11-11T06:09:22;99304.47;;;7.71;58.07
40285;BME280;25997;50.214;19.354;2022-11-11T06:12:44;99316.03;;;7.75;57.89
40285;BME280;25997;50.214;19.354;2022-11-11T06:16:18;99319.69;;;7.78;57.93
40285;BME280;25997;50.214;19.354;2022-11-11T06:19:39;99319.31;;;7.87;57.65
40285;BME280;25997;50.214;19.354;2022-11-11T06:23:00;99315.25;;;7.92;57.56
40285;BME280;25997;50.214;19.354;2022-11-11T06:26:22;99315.34;;;7.94;57.70
40285;BME280;25997;50.214;19.354;2022-11-11T06:29:43;99314.06;;;8.02;57.64
40285;BME280;25997;50.214;19.354;2022-11-11T06:33:04;99311.88;;;8.09;57.60
40285;BME280;25997;50.214;19.354;2022-11-11T06:36:26;99310.50;;;8.16;57.44
40285;BME280;25997;50.214;19.354;2022-11-11T06:39:47;99302.75;;;8.17;57.35
40285;BME280;25997;50.214;19.354;2022-11-11T06:43:09;99305.44;;;8.19;57.19
40285;BME280;25997;50.214;19.354;2022-11-11T06:46:31;99311.59;;;8.19;57.04
40285;BME280;25997;50.214;19.354;2022-11-11T06:49:52;99321.94;;;8.18;57.07
40285;BME280;25997;50.214;19.354;2022-11-11T06:53:15;99314.94;;;8.17;57.08
40285;BME280;25997;50.214;19.354;2022-11-11T06:56:37;99317.53;;;8.17;56.97
40285;BME280;25997;50.214;19.354;2022-11-11T06:59:59;99322.44;;;8.11;57.12
40285;BME280;25997;50.214;19.354;2022-11-11T07:03:21;99316.84;;;8.05;57.17
40285;BME280;25997;50.214;19.354;2022-11-11T07:06:42;99320.28;;;8.04;57.05
40285;BME280;25997;50.214;19.354;2022-11-11T07:10:03;99319.38;;;8.03;57.18
40285;BME280;25997;50.214;19.354;2022-11-11T07:13:25;99322.97;;;8.05;57.04
40285;BME280;25997;50.214;19.354;2022-11-11T07:16:48;99316.69;;;8.02;57.33
40285;BME280;25997;50.214;19.354;2022-11-11T07:20:09;99304.88;;;7.94;57.34
40285;BME280;25997;50.214;19.354;2022-11-11T07:23:30;99306.69;;;7.95;57.47
40285;BME280;25997;50.214;19.354;2022-11-11T07:26:51;99308.91;;;8.03;57.31
40285;BME280;25997;50.214;19.354;2022-11-11T07:30:16;99312.25;;;8.01;57.38
40285;BME280;25997;50.214;19.354;2022-11-11T07:33:39;99301.00;;;8.02;57.38
40285;BME280;25997;50.214;19.354;2022-11-11T07:37:00;99303.69;;;8.03;57.29
40285;BME280;25997;50.214;19.354;2022-11-11T07:40:21;99309.97;;;8.07;57.15
40285;BME280;25997;50.214;19.354;2022-11-11T07:43:42;99297.09;;;8.10;57.31
40285;BME280;25997;50.214;19.354;2022-11-11T07:47:03;99282.84;;;8.05;57.58
40285;BME280;25997;50.214;19.354;2022-11-11T07:50:26;99285.31;;;8.02;57.57
40285;BME280;25997;50.214;19.354;2022-11-11T07:53:47;99280.41;;;8.08;57.74
40285;BME280;25997;50.214;19.354;2022-11-11T07:57:08;99281.22;;;8.07;57.84
40285;BME280;25997;50.214;19.354;2022-11-11T08:00:29;99279.59;;;8.09;57.98
40285;BME280;25997;50.214;19.354;2022-11-11T08:03:49;99283.13;;;8.25;57.93
40285;BME280;25997;50.214;19.354;2022-11-11T08:07:11;99286.50;;;8.39;57.66
40285;BME280;25997;50.214;19.354;2022-11-11T08:10:33;99275.19;;;8.40;57.54
40285;BME280;25997;50.214;19.354;2022-11-11T08:13:54;99272.59;;;8.56;57.43
40285;BME280;25997;50.214;19.354;2022-11-11T08:17:15;99284.31;;;8.46;57.10
40285;BME280;25997;50.214;19.354;2022-11-11T08:20:37;99279.41;;;8.52;57.28
40285;BME280;25997;50.214;19.354;2022-11-11T08:23:59;99280.53;;;8.74;56.40
40285;BME280;25997;50.214;19.354;2022-11-11T08:27:20;99294.28;;;8.86;56.42
40285;BME280;25997;50.214;19.354;2022-11-11T08:30:41;99286.84;;;8.93;55.96
40285;BME280;25997;50.214;19.354;2022-11-11T08:34:02;99286.13;;;8.96;55.87
40285;BME280;25997;50.214;19.354;2022-11-11T08:37:23;99293.88;;;9.10;55.91
40285;BME280;25997;50.214;19.354;2022-11-11T08:40:46;99305.09;;;9.24;55.62
40285;BME280;25997;50.214;19.354;2022-11-11T08:44:06;99308.47;;;9.39;55.45
40285;BME280;25997;50.214;19.354;2022-11-11T08:47:28;99313.69;;;9.55;55.18
40285;BME280;25997;50.214;19.354;2022-11-11T08:50:51;99316.38;;;9.74;55.01
40285;BME280;25997;50.214;19.354;2022-11-11T08:54:12;99314.28;;;9.85;54.76
40285;BME280;25997;50.214;19.354;2022-11-11T08:57:34;99324.00;;;10.04;54.66
40285;BME280;25997;50.214;19.354;2022-11-11T09:00:55;99322.09;;;10.01;54.37
40285;BME280;25997;50.214;19.354;2022-11-11T09:04:17;99323.47;;;10.28;54.16
40285;BME280;25997;50.214;19.354;2022-11-11T09:07:38;99316.63;;;10.32;53.12
40285;BME280;25997;50.214;19.354;2022-11-11T09:10:58;99301.44;;;10.44;53.73
40285;BME280;25997;50.214;19.354;2022-11-11T09:14:21;99299.81;;;10.65;52.85
40285;BME280;25997;50.214;19.354;2022-11-11T09:17:45;99305.53;;;10.56;52.44
40285;BME280;25997;50.214;19.354;2022-11-11T09:21:07;99321.63;;;10.45;52.73
40285;BME280;25997;50.214;19.354;2022-11-11T09:24:28;99324.72;;;10.73;52.79
40285;BME280;25997;50.214;19.354;2022-11-11T09:27:56;99317.38;;;10.85;52.26
40285;BME280;25997;50.214;19.354;2022-11-11T09:31:19;99312.94;;;10.65;52.07
40285;BME280;25997;50.214;19.354;2022-11-11T09:34:41;99327.81;;;10.84;52.39
40285;BME280;25997;50.214;19.354;2022-11-11T09:38:02;99322.69;;;11.06;52.14
40285;BME280;25997;50.214;19.354;2022-11-11T09:41:32;99315.09;;;11.31;51.82
40285;BME280;25997;50.214;19.354;2022-11-11T09:45:16;99321.53;;;11.37;50.77
40285;BME280;25997;50.214;19.354;2022-11-11T09:48:49;99328.53;;;11.18;51.21
40285;BME280;25997;50.214;19.354;2022-11-11T09:52:16;99329.53;;;11.20;51.71
40285;BME280;25997;50.214;19.354;2022-11-11T09:55:41;99326.81;;;11.18;51.27
40285;BME280;25997;50.214;19.354;2022-11-11T09:59:07;99321.78;;;11.05;51.25
40285;BME280;25997;50.214;19.354;2022-11-11T10:02:34;99324.25;;;11.20;51.64
40285;BME280;25997;50.214;19.354;2022-11-11T10:06:02;99317.25;;;11.01;51.63
40285;BME280;25997;50.214;19.354;2022-11-11T10:09:30;99317.81;;;11.13;51.54
40285;BME280;25997;50.214;19.354;2022-11-11T10:12:55;99323.00;;;11.31;51.58
40285;BME280;25997;50.214;19.354;2022-11-11T10:16:25;99334.28;;;11.49;51.38
40285;BME280;25997;50.214;19.354;2022-11-11T10:19:57;99327.41;;;11.32;51.38
40285;BME280;25997;50.214;19.354;2022-11-11T10:23:24;99327.44;;;11.53;50.91
40285;BME280;25997;50.214;19.354;2022-11-11T10:26:46;99324.84;;;11.73;51.42
40285;BME280;25997;50.214;19.354;2022-11-11T10:30:14;99316.72;;;11.89;50.40
40285;BME280;25997;50.214;19.354;2022-11-11T10:33:43;99318.44;;;11.89;50.49
40285;BME280;25997;50.214;19.354;2022-11-11T10:37:16;99310.03;;;12.18;50.89
40285;BME280;25997;50.214;19.354;2022-11-11T10:40:43;99308.44;;;12.44;50.31
40285;BME280;25997;50.214;19.354;2022-11-11T10:44:23;99312.31;;;12.31;49.51
40285;BME280;25997;50.214;19.354;2022-11-11T10:47:51;99309.09;;;12.38;49.89
40285;BME280;25997;50.214;19.354;2022-11-11T10:51:15;99301.78;;;12.99;49.85
40285;BME280;25997;50.214;19.354;2022-11-11T10:54:39;99296.56;;;13.49;48.46
40285;BME280;25997;50.214;19.354;2022-11-11T10:58:08;99286.97;;;13.26;47.46
40285;BME280;25997;50.214;19.354;2022-11-11T11:01:36;99303.81;;;13.06;48.48
40285;BME280;25997;50.214;19.354;2022-11-11T11:05:02;99303.44;;;13.19;48.51
40285;BME280;25997;50.214;19.354;2022-11-11T11:08:27;99296.50;;;12.99;48.14
40285;BME280;25997;50.214;19.354;2022-11-11T11:11:53;99298.09;;;12.96;48.22
40285;BME280;25997;50.214;19.354;2022-11-11T11:15:20;99286.47;;;13.13;47.84
40285;BME280;25997;50.214;19.354;2022-11-11T11:18:42;99284.69;;;13.12;48.15
40285;BME280;25997;50.214;19.354;2022-11-11T11:22:04;99286.53;;;13.14;48.16
40285;BME280;25997;50.214;19.354;2022-11-11T11:25:26;99274.50;;;13.47;47.64
40285;BME280;25997;50.214;19.354;2022-11-11T11:28:55;99308.56;;;13.40;46.20
40285;BME280;25997;50.214;19.354;2022-11-11T11:32:19;99301.47;;;13.39;47.44
40285;BME280;25997;50.214;19.354;2022-11-11T11:35:43;99295.69;;;13.24;47.38
40285;BME280;25997;50.214;19.354;2022-11-11T11:39:05;99298.25;;;13.22;47.07
40285;BME280;25997;50.214;19.354;2022-11-11T11:42:27;99291.81;;;13.14;46.81
40285;BME280;25997;50.214;19.354;2022-11-11T11:45:54;99287.06;;;13.29;46.66
40285;BME280;25997;50.214;19.354;2022-11-11T11:49:30;99289.66;;;13.28;46.27
40285;BME280;25997;50.214;19.354;2022-11-11T11:53:06;99281.00;;;13.32;46.42
40285;BME280;25997;50.214;19.354;2022-11-11T11:56:36;99279.94;;;13.52;46.18
40285;BME280;25997;50.214;19.354;2022-11-11T12:00:03;99272.03;;;13.77;46.65
40285;BME280;25997;50.214;19.354;2022-11-11T12:07:11;99272.19;;;13.82;45.67
40285;BME280;25997;50.214;19.354;2022-11-11T12:10:43;99270.16;;;13.75;46.35
40285;BME280;25997;50.214;19.354;2022-11-11T12:18:16;99268.25;;;13.44;45.51
40285;BME280;25997;50.214;19.354;2022-11-11T12:21:54;99265.59;;;13.19;46.07
40285;BME280;25997;50.214;19.354;2022-11-11T12:25:26;99264.84;;;13.23;46.40
40285;BME280;25997;50.214;19.354;2022-11-11T12:29:06;99257.88;;;13.25;45.68
40285;BME280;25997;50.214;19.354;2022-11-11T12:32:52;99242.91;;;13.24;45.67
40285;BME280;25997;50.214;19.354;2022-11-11T12:36:20;99245.31;;;12.94;46.29
40285;BME280;25997;50.214;19.354;2022-11-11T12:40:03;99250.03;;;13.03;46.29
40285;BME280;25997;50.214;19.354;2022-11-11T12:43:35;99236.78;;;13.01;46.49
40285;BME280;25997;50.214;19.354;2022-11-11T12:47:16;99236.91;;;13.04;46.18
40285;BME280;25997;50.214;19.354;2022-11-11T12:50:48;99253.34;;;12.97;46.93
40285;BME280;25997;50.214;19.354;2022-11-11T12:54:21;99252.75;;;13.04;46.56
40285;BME280;25997;50.214;19.354;2022-11-11T12:58:05;99252.97;;;12.86;46.48
40285;BME280;25997;50.214;19.354;2022-11-11T13:01:38;99250.75;;;12.99;46.80
40285;BME280;25997;50.214;19.354;2022-11-11T13:05:09;99245.53;;;13.00;46.62
40285;BME280;25997;50.214;19.354;2022-11-11T13:08:49;99259.25;;;12.66;46.40
40285;BME280;25997;50.214;19.354;2022-11-11T13:12:18;99249.88;;;12.74;46.99
40285;BME280;25997;50.214;19.354;2022-11-11T13:15:42;99241.16;;;12.75;47.02
40285;BME280;25997;50.214;19.354;2022-11-11T13:19:13;99248.72;;;12.66;47.01
40285;BME280;25997;50.214;19.354;2022-11-11T13:22:34;99235.41;;;12.87;46.98
40285;BME280;25997;50.214;19.354;2022-11-11T13:26:00;99236.06;;;12.58;47.06
40285;BME280;25997;50.214;19.354;2022-11-11T13:30:00;99233.94;;;12.71;47.13
40285;BME280;25997;50.214;19.354;2022-11-11T13:33:25;99236.53;;;12.70;47.21
40285;BME280;25997;50.214;19.354;2022-11-11T13:36:51;99227.50;;;12.63;47.28
40285;BME280;25997;50.214;19.354;2022-11-11T13:40:29;99227.25;;;12.34;47.36
40285;BME280;25997;50.214;19.354;2022-11-11T13:43:53;99228.91;;;12.54;47.38
40285;BME280;25997;50.214;19.354;2022-11-11T13:47:18;99226.81;;;12.69;47.35
40285;BME280;25997;50.214;19.354;2022-11-11T13:50:40;99244.25;;;12.65;47.27
40285;BME280;25997;50.214;19.354;2022-11-11T13:54:04;99233.06;;;12.71;47.06
40285;BME280;25997;50.214;19.354;2022-11-11T13:57:28;99229.75;;;12.53;47.23
40285;BME280;25997;50.214;19.354;2022-11-11T14:00:57;99236.31;;;12.64;46.98
40285;BME280;25997;50.214;19.354;2022-11-11T14:04:20;99230.69;;;12.78;47.17
40285;BME280;25997;50.214;19.354;2022-11-11T14:07:48;99226.34;;;12.55;47.10
40285;BME280;25997;50.214;19.354;2022-11-11T14:11:26;99225.00;;;12.66;47.27
40285;BME280;25997;50.214;19.354;2022-11-11T14:14:55;99245.44;;;12.73;47.15
40285;BME280;25997;50.214;19.354;2022-11-11T14:18:34;99235.47;;;12.88;46.94
40285;BME280;25997;50.214;19.354;2022-11-11T14:21:56;99244.66;;;13.00;47.03
40285;BME280;25997;50.214;19.354;2022-11-11T14:25:20;99235.31;;;12.84;47.08
40285;BME280;25997;50.214;19.354;2022-11-11T14:28:52;99242.31;;;12.60;47.45
40285;BME280;25997;50.214;19.354;2022-11-11T14:32:42;99245.38;;;12.48;47.51
40285;BME280;25997;50.214;19.354;2022-11-11T14:36:11;99253.66;;;12.35;48.01
40285;BME280;25997;50.214;19.354;2022-11-11T14:39:40;99248.88;;;12.25;48.31
40285;BME280;25997;50.214;19.354;2022-11-11T14:47:23;99249.41;;;11.96;48.92
40285;BME280;25997;50.214;19.354;2022-11-11T14:50:45;99247.03;;;11.80;49.20
40285;BME280;25997;50.214;19.354;2022-11-11T14:54:16;99249.59;;;11.78;49.27
40285;BME280;25997;50.214;19.354;2022-11-11T14:57:39;99239.44;;;11.67;49.52
40285;BME280;25997;50.214;19.354;2022-11-11T15:01:13;99245.94;;;11.75;49.33
40285;BME280;25997;50.214;19.354;2022-11-11T15:04:39;99236.34;;;11.55;49.74
40285;BME280;25997;50.214;19.354;2022-11-11T15:08:05;99241.34;;;11.49;49.88
40285;BME280;25997;50.214;19.354;2022-11-11T15:11:31;99231.59;;;11.46;50.06
40285;BME280;25997;50.214;19.354;2022-11-11T15:15:00;99232.50;;;11.26;50.24
40285;BME280;25997;50.214;19.354;2022-11-11T15:18:48;99232.03;;;11.15;50.53
40285;BME280;25997;50.214;19.354;2022-11-11T15:22:27;99244.75;;;11.06;50.74
40285;BME280;25997;50.214;19.354;2022-11-11T15:26:00;99239.00;;;10.96;50.87
40285;BME280;25997;50.214;19.354;2022-11-11T15:29:42;99244.16;;;10.93;50.82
40285;BME280;25997;50.214;19.354;2022-11-11T15:33:12;99246.31;;;10.82;51.07
40285;BME280;25997;50.214;19.354;2022-11-11T15:36:50;99231.00;;;10.73;51.31
40285;BME280;25997;50.214;19.354;2022-11-11T15:40:19;99245.19;;;10.77;50.99
40285;BME280;25997;50.214;19.354;2022-11-11T15:43:41;99246.31;;;10.63;51.41
40285;BME280;25997;50.214;19.354;2022-11-11T15:47:02;99241.19;;;10.66;51.13
40285;BME280;25997;50.214;19.354;2022-11-11T15:50:32;99245.06;;;10.55;51.46
40285;BME280;25997;50.214;19.354;2022-11-11T15:54:08;99257.28;;;10.54;51.68
40285;BME280;25997;50.214;19.354;2022-11-11T15:57:32;99265.94;;;10.52;51.49
40285;BME280;25997;50.214;19.354;2022-11-11T16:00:54;99261.16;;;10.43;51.86
40285;BME280;25997;50.214;19.354;2022-11-11T16:04:18;99252.38;;;10.43;52.05
40285;BME280;25997;50.214;19.354;2022-11-11T16:07:42;99261.47;;;10.32;52.36
40285;BME280;25997;50.214;19.354;2022-11-11T16:11:04;99255.41;;;10.33;52.26
40285;BME280;25997;50.214;19.354;2022-11-11T16:14:30;99247.34;;;10.28;52.25
40285;BME280;25997;50.214;19.354;2022-11-11T16:17:53;99251.53;;;10.25;52.49
40285;BME280;25997;50.214;19.354;2022-11-11T16:21:18;99252.84;;;10.15;52.72
40285;BME280;25997;50.214;19.354;2022-11-11T16:24:41;99241.22;;;10.10;53.15
40285;BME280;25997;50.214;19.354;2022-11-11T16:28:04;99251.09;;;9.98;53.40
40285;BME280;25997;50.214;19.354;2022-11-11T16:31:40;99248.88;;;10.06;53.38
40285;BME280;25997;50.214;19.354;2022-11-11T16:35:19;99261.31;;;10.10;53.08
40285;BME280;25997;50.214;19.354;2022-11-11T16:38:42;99256.75;;;10.06;53.33
40285;BME280;25997;50.214;19.354;2022-11-11T16:42:04;99244.88;;;9.96;53.77
40285;BME280;25997;50.214;19.354;2022-11-11T16:45:26;99247.50;;;9.96;53.56
40285;BME280;25997;50.214;19.354;2022-11-11T16:48:49;99243.31;;;9.99;53.61
40285;BME280;25997;50.214;19.354;2022-11-11T16:52:13;99239.19;;;10.05;53.64
40285;BME280;25997;50.214;19.354;2022-11-11T16:55:38;99250.53;;;10.04;53.61
40285;BME280;25997;50.214;19.354;2022-11-11T16:59:06;99247.28;;;9.74;54.44
40285;BME280;25997;50.214;19.354;2022-11-11T17:02:30;99260.09;;;9.85;54.07
40285;BME280;25997;50.214;19.354;2022-11-11T17:05:55;99262.28;;;9.94;53.85
40285;BME280;25997;50.214;19.354;2022-11-11T17:09:38;99254.91;;;9.87;53.96
40285;BME280;25997;50.214;19.354;2022-11-11T17:12:59;99259.34;;;9.88;53.89
40285;BME280;25997;50.214;19.354;2022-11-11T17:16:23;99262.31;;;9.95;53.59
40285;BME280;25997;50.214;19.354;2022-11-11T17:19:44;99272.78;;;9.76;54.28
40285;BME280;25997;50.214;19.354;2022-11-11T17:23:06;99273.00;;;9.81;54.02
40285;BME280;25997;50.214;19.354;2022-11-11T17:26:28;99275.47;;;9.78;54.21
40285;BME280;25997;50.214;19.354;2022-11-11T17:29:49;99258.44;;;9.87;53.90
40285;BME280;25997;50.214;19.354;2022-11-11T17:33:11;99258.75;;;9.76;54.34
40285;BME280;25997;50.214;19.354;2022-11-11T17:36:32;99259.66;;;9.76;54.29
40285;BME280;25997;50.214;19.354;2022-11-11T17:39:55;99254.41;;;9.76;54.20
40285;BME280;25997;50.214;19.354;2022-11-11T17:43:16;99266.56;;;9.74;54.18
40285;BME280;25997;50.214;19.354;2022-11-11T17:46:37;99264.00;;;9.76;54.11
40285;BME280;25997;50.214;19.354;2022-11-11T17:49:58;99263.31;;;9.62;54.54
40285;BME280;25997;50.214;19.354;2022-11-11T17:53:19;99262.34;;;9.60;54.51
40285;BME280;25997;50.214;19.354;2022-11-11T17:56:41;99273.38;;;9.53;54.67
40285;BME280;25997;50.214;19.354;2022-11-11T18:00:05;99268.34;;;9.58;54.72
40285;BME280;25997;50.214;19.354;2022-11-11T18:03:26;99271.50;;;9.68;54.45
40285;BME280;25997;50.214;19.354;2022-11-11T18:06:47;99274.41;;;9.57;54.58
40285;BME280;25997;50.214;19.354;2022-11-11T18:10:09;99275.69;;;9.47;55.04
40285;BME280;25997;50.214;19.354;2022-11-11T18:13:32;99273.16;;;9.49;54.89
40285;BME280;25997;50.214;19.354;2022-11-11T18:16:53;99285.66;;;9.54;54.74